Time;durP1;ratioP1;P1;durP2;ratioP2;P2;SDS_P1;SDS_P2;PMS_P1;PMS_P2;Temp;Humidity;BMP_temperature;BMP_pressure;BME280_temperature;BME280_humidity;BME280_pressure;Samples;Min_cycle;Max_cycle;Signal;HPM_P1;HPM_P2
2023/04/06 00:00:08;;;;;;;24.27;16.73;;;;;;;1.34;67.35;101346.09;5115050;28;20181;-68
2023/04/06 00:02:35;;;;;;;27.87;16.20;;;;;;;1.31;67.07;101347.03;5115486;28;20697;-68
2023/04/06 00:05:02;;;;;;;27.87;17.50;;;;;;;1.19;67.52;101345.53;5114936;28;20605;-68
2023/04/06 00:07:29;;;;;;;28.47;16.83;;;;;;;1.17;67.87;101343.84;5114914;28;20188;-68
2023/04/06 00:09:55;;;;;;;26.40;16.20;;;;;;;1.13;67.80;101342.22;5114619;28;20193;-68
2023/04/06 00:12:22;;;;;;;26.00;16.23;;;;;;;1.14;68.94;101338.66;5114767;28;20181;-68
2023/04/06 00:14:48;;;;;;;27.83;16.57;;;;;;;1.10;68.63;101332.56;5114705;28;20239;-68
2023/04/06 00:17:15;;;;;;;25.53;16.97;;;;;;;1.08;69.27;101338.78;5115541;28;20551;-68
2023/04/06 00:19:41;;;;;;;28.13;17.57;;;;;;;1.06;70.22;101330.91;5115349;28;20179;-68
2023/04/06 00:22:07;;;;;;;28.83;17.13;;;;;;;1.02;71.11;101330.09;5114600;28;20200;-68
2023/04/06 00:24:34;;;;;;;30.40;17.73;;;;;;;1.01;71.86;101327.53;5114640;28;20559;-68
2023/04/06 00:27:01;;;;;;;25.87;17.03;;;;;;;1.02;70.96;101327.47;5114498;28;20195;-68
2023/04/06 00:29:27;;;;;;;23.07;15.87;;;;;;;1.00;72.26;101326.63;5114564;28;20658;-68
2023/04/06 00:31:54;;;;;;;31.10;17.50;;;;;;;0.97;71.51;101318.81;5114689;28;20189;-68
2023/04/06 00:34:20;;;;;;;27.97;17.73;;;;;;;1.00;72.24;101321.34;5095962;28;20212;-68
2023/04/06 00:36:47;;;;;;;30.10;17.83;;;;;;;0.91;73.05;101324.22;5114283;28;20218;-68
2023/04/06 00:39:13;;;;;;;27.47;17.10;;;;;;;0.90;72.72;101321.63;5114327;28;20184;-68
2023/04/06 00:41:46;;;;;;;26.97;17.80;;;;;;;0.87;74.29;101313.78;5095881;28;20199;-68
2023/04/06 00:44:12;;;;;;;32.77;17.87;;;;;;;0.82;73.75;101306.84;5114482;28;20701;-68
2023/04/06 00:46:39;;;;;;;30.57;16.97;;;;;;;0.75;73.94;101309.66;5114464;28;20193;-68
2023/04/06 00:49:05;;;;;;;26.37;16.87;;;;;;;0.76;75.02;101304.31;5114173;28;20199;-68
2023/04/06 00:51:32;;;;;;;30.50;18.90;;;;;;;0.79;74.95;101300.75;5114398;28;20191;-68
2023/04/06 00:53:58;;;;;;;27.57;18.00;;;;;;;0.80;75.30;101297.22;5095833;28;20567;-68
2023/04/06 00:56:26;;;;;;;24.77;17.80;;;;;;;0.69;74.63;101289.53;5095892;28;20238;-68
2023/04/06 00:58:53;;;;;;;27.17;18.07;;;;;;;0.69;76.00;101286.03;5095765;28;20192;-68
2023/04/06 01:01:20;;;;;;;26.60;16.87;;;;;;;0.63;75.14;101293.19;5114328;28;20186;-68
2023/04/06 01:03:49;;;;;;;28.00;19.60;;;;;;;0.60;75.85;101289.75;5095491;28;20309;-68
2023/04/06 01:06:17;;;;;;;25.77;18.23;;;;;;;0.57;75.65;101282.75;5095944;28;20206;-68
2023/04/06 01:08:50;;;;;;;33.40;17.60;;;;;;;0.59;75.25;101282.75;5095670;28;20185;-68
2023/04/06 01:11:20;;;;;;;32.87;17.87;;;;;;;0.64;75.58;101276.47;5095549;28;20197;-69
2023/04/06 01:13:48;;;;;;;41.57;19.20;;;;;;;0.53;75.81;101273.22;5095891;28;20230;-69
2023/04/06 01:16:25;;;;;;;25.97;19.37;;;;;;;0.52;76.58;101271.47;5096495;28;20216;-69
2023/04/06 01:19:13;;;;;;;30.90;18.83;;;;;;;0.55;76.43;101276.69;5114064;28;20264;-69
2023/04/06 01:21:50;;;;;;;31.77;17.90;;;;;;;0.55;76.12;101265.25;5095358;28;20250;-69
2023/04/06 01:24:29;;;;;;;32.23;19.80;;;;;;;0.48;76.14;101267.19;5114222;28;20213;-68
2023/04/06 01:27:12;;;;;;;30.23;19.13;;;;;;;0.45;76.70;101261.94;5095609;28;20205;-68
2023/04/06 01:29:56;;;;;;;28.77;18.87;;;;;;;0.42;76.65;101264.66;5113977;28;20182;-68
2023/04/06 01:32:36;;;;;;;26.03;17.83;;;;;;;0.38;77.47;101262.97;5096340;28;20188;-68
2023/04/06 01:35:03;;;;;;;32.93;18.87;;;;;;;0.35;76.42;101252.50;5095265;28;20217;-68
2023/04/06 01:37:33;;;;;;;27.03;18.37;;;;;;;0.32;76.59;101256.09;5096227;28;20187;-68
2023/04/06 01:40:03;;;;;;;32.47;19.13;;;;;;;0.33;76.68;101249.91;5095556;28;20204;-68
2023/04/06 01:42:40;;;;;;;34.33;17.80;;;;;;;0.35;76.55;101252.50;5096042;28;20594;-68
2023/04/06 01:45:09;;;;;;;29.93;17.67;;;;;;;0.32;78.00;101252.59;5095936;28;20220;-68
2023/04/06 01:47:36;;;;;;;30.03;19.37;;;;;;;0.28;77.64;101246.50;5095454;28;20193;-68
2023/04/06 01:50:05;;;;;;;32.13;19.60;;;;;;;0.24;76.98;101251.88;5095176;28;20191;-68
2023/04/06 01:52:37;;;;;;;37.90;19.07;;;;;;;0.16;77.14;101242.34;5095839;28;20191;-68
2023/04/06 01:55:04;;;;;;;32.73;18.80;;;;;;;0.10;77.49;101247.75;5095093;28;20205;-68
2023/04/06 01:57:55;;;;;;;28.27;18.07;;;;;;;0.07;78.33;101246.94;5095482;28;20197;-68
2023/04/06 02:00:31;;;;;;;29.37;17.00;;;;;;;0.04;77.50;101241.75;5095169;28;20226;-68
2023/04/06 02:02:58;;;;;;;30.30;18.20;;;;;;;-0.02;78.46;101254.13;5095091;28;20344;-68
2023/04/06 02:05:30;;;;;;;38.43;18.73;;;;;;;-0.03;78.21;101252.38;5095106;28;20559;-68
2023/04/06 02:07:57;;;;;;;27.77;18.47;;;;;;;-0.09;77.55;101246.41;5095074;28;20247;-68
2023/04/06 02:10:32;;;;;;;35.50;18.93;;;;;;;-0.10;77.55;101250.75;5094998;28;20239;-68
2023/04/06 02:13:04;;;;;;;31.90;18.17;;;;;;;-0.09;78.99;101251.66;5096024;28;20173;-68
2023/04/06 02:15:32;;;;;;;29.17;18.13;;;;;;;-0.12;78.35;101246.44;5094951;28;20204;-68
2023/04/06 02:17:59;;;;;;;28.83;18.27;;;;;;;-0.16;78.35;101243.00;5113188;28;20662;-68
2023/04/06 02:20:25;;;;;;;35.43;19.37;;;;;;;-0.12;78.24;101243.81;5094928;28;20198;-68
2023/04/06 02:22:52;;;;;;;33.37;18.87;;;;;;;-0.13;78.35;101240.31;5113389;28;20292;-68
2023/04/06 02:25:19;;;;;;;28.43;18.40;;;;;;;-0.08;79.08;101238.44;5094833;28;20213;-68
2023/04/06 02:27:45;;;;;;;35.07;19.70;;;;;;;-0.17;78.40;101241.25;5094752;28;20217;-69
2023/04/06 02:30:12;;;;;;;28.20;18.70;;;;;;;-0.18;78.67;101234.28;5113097;28;20193;-69
2023/04/06 02:32:38;;;;;;;29.40;19.00;;;;;;;-0.25;79.09;101237.91;5096569;28;20216;-69
2023/04/06 02:35:06;;;;;;;26.63;18.13;;;;;;;-0.26;79.21;101242.31;5098345;28;20213;-69
2023/04/06 02:37:33;;;;;;;34.33;19.03;;;;;;;-0.26;78.98;101233.56;5098407;28;20227;-69
2023/04/06 02:40:00;;;;;;;36.10;18.53;;;;;;;-0.30;80.02;101239.78;5098404;28;20189;-69
2023/04/06 02:42:29;;;;;;;39.63;19.10;;;;;;;-0.38;79.51;101241.66;5098236;28;20221;-69
2023/04/06 02:44:55;;;;;;;33.80;21.03;;;;;;;-0.39;80.03;101232.03;5098153;28;20209;-67
2023/04/06 02:47:26;;;;;;;33.03;19.73;;;;;;;-0.40;80.47;101236.44;5099351;28;20196;-69
2023/04/06 02:49:52;;;;;;;35.63;18.23;;;;;;;-0.45;81.20;101228.63;5098128;28;20193;-69
2023/04/06 02:52:19;;;;;;;30.27;20.07;;;;;;;-0.43;80.89;101236.50;5098064;28;20205;-69
2023/04/06 02:54:45;;;;;;;29.70;18.27;;;;;;;-0.37;81.36;101235.50;5098035;28;20213;-69
2023/04/06 02:57:12;;;;;;;27.80;19.03;;;;;;;-0.34;81.29;101222.28;5097990;28;20190;-68
2023/04/06 02:59:42;;;;;;;37.33;20.47;;;;;;;-0.39;81.10;101225.00;5098288;28;20189;-68
2023/04/06 03:02:20;;;;;;;32.03;18.57;;;;;;;-0.39;81.34;101224.16;5098160;28;20196;-68
2023/04/06 03:04:47;;;;;;;28.10;19.27;;;;;;;-0.54;81.07;101220.91;5097889;28;20236;-68
2023/04/06 03:07:21;;;;;;;36.87;21.30;;;;;;;-0.47;81.70;101221.66;5098735;28;20191;-68
2023/04/06 03:09:48;;;;;;;55.67;24.47;;;;;;;-0.48;81.41;101214.66;5098030;28;20710;-69
2023/04/06 03:12:16;;;;;;;35.70;20.27;;;;;;;-0.47;81.84;101219.03;5097737;28;20219;-69
2023/04/06 03:15:06;;;;;;;31.10;18.37;;;;;;;-0.50;81.06;101221.72;5086657;28;20229;-69
2023/04/06 03:17:34;;;;;;;30.80;20.07;;;;;;;-0.50;81.10;101225.22;5097678;28;20198;-69
2023/04/06 03:20:05;;;;;;;28.77;19.27;;;;;;;-0.50;81.91;101219.97;5097940;28;20193;-69
2023/04/06 03:22:31;;;;;;;39.10;20.10;;;;;;;-0.52;82.19;101215.63;5097387;28;20196;-69
2023/04/06 03:24:58;;;;;;;32.27;20.57;;;;;;;-0.46;81.49;101215.50;5097724;28;20213;-68
2023/04/06 03:27:29;;;;;;;35.10;20.00;;;;;;;-0.45;81.53;101217.25;5097987;28;20698;-69
2023/04/06 03:29:56;;;;;;;37.90;21.10;;;;;;;-0.49;82.30;101218.19;5097703;28;20197;-69
2023/04/06 03:32:29;;;;;;;38.77;20.50;;;;;;;-0.50;81.94;101219.97;5097640;28;20189;-69
2023/04/06 03:34:56;;;;;;;36.13;20.57;;;;;;;-0.45;82.44;101212.84;5115523;28;20220;-68
2023/04/06 03:37:23;;;;;;;33.87;19.90;;;;;;;-0.44;81.66;101211.94;5097267;28;20189;-68
2023/04/06 03:39:53;;;;;;;39.03;20.33;;;;;;;-0.47;82.10;101219.03;5098070;28;20282;-68
2023/04/06 03:42:22;;;;;;;37.83;20.40;;;;;;;-0.46;82.59;101218.97;5097114;28;20228;-68
2023/04/06 03:44:52;;;;;;;33.37;19.50;;;;;;;-0.53;82.15;101222.63;5096303;28;20891;-69
2023/04/06 03:47:19;;;;;;;29.70;18.90;;;;;;;-0.59;82.18;101227.16;5097284;28;20655;-69
2023/04/06 03:49:45;;;;;;;33.60;18.67;;;;;;;-0.58;81.68;101224.47;5115270;28;20551;-69
2023/04/06 03:52:14;;;;;;;31.47;19.70;;;;;;;-0.56;82.34;101227.09;5097855;28;20189;-69
2023/04/06 03:54:40;;;;;;;32.47;19.83;;;;;;;-0.62;81.80;101225.44;5096912;28;20308;-68
2023/04/06 03:57:09;;;;;;;28.97;20.60;;;;;;;-0.63;82.54;101225.47;5096795;28;20562;-68
2023/04/06 03:59:35;;;;;;;37.33;21.30;;;;;;;-0.71;82.41;101218.56;5096798;28;20223;-68
2023/04/06 04:02:02;;;;;;;38.03;20.37;;;;;;;-0.75;82.16;101221.28;5114994;28;20656;-68
2023/04/06 04:04:28;;;;;;;56.87;28.37;;;;;;;-0.78;82.61;101222.19;5114861;28;20213;-67
2023/04/06 04:06:56;;;;;;;34.57;21.43;;;;;;;-0.92;83.46;101222.41;5096871;28;20568;-67
2023/04/06 04:09:22;;;;;;;38.27;22.27;;;;;;;-0.94;83.83;101223.34;5115095;28;20181;-69
2023/04/06 04:11:50;;;;;;;31.97;20.13;;;;;;;-0.93;83.25;101218.06;5096720;28;20254;-68
2023/04/06 04:14:16;;;;;;;36.87;22.43;;;;;;;-0.85;83.28;101217.94;5097026;28;20626;-68
2023/04/06 04:16:44;;;;;;;40.43;23.00;;;;;;;-0.86;83.91;101221.47;5096718;28;20193;-68
2023/04/06 04:19:10;;;;;;;34.43;21.53;;;;;;;-0.88;83.76;101225.88;5114757;28;20256;-67
2023/04/06 04:21:44;;;;;;;35.90;20.63;;;;;;;-0.84;83.44;101224.06;5114898;28;20209;-68
2023/04/06 04:24:14;;;;;;;48.23;22.63;;;;;;;-0.83;83.71;101225.81;5096213;28;20749;-68
2023/04/06 04:26:40;;;;;;;30.40;19.97;;;;;;;-0.80;82.70;101217.84;5114805;28;20276;-68
2023/04/06 04:29:07;;;;;;;40.53;21.93;;;;;;;-0.84;83.05;101219.66;5096300;28;20193;-68
2023/04/06 04:31:35;;;;;;;38.10;20.43;;;;;;;-0.78;83.03;101213.44;5096319;28;20486;-69
2023/04/06 04:34:06;;;;;;;41.17;21.53;;;;;;;-0.81;83.80;101214.38;5096322;28;20288;-69
2023/04/06 04:36:33;;;;;;;33.60;20.33;;;;;;;-0.78;83.29;101222.19;5096508;28;20197;-68
2023/04/06 04:39:03;;;;;;;37.80;21.17;;;;;;;-0.76;83.57;101214.28;5096012;28;20189;-68
2023/04/06 04:41:35;;;;;;;35.37;21.20;;;;;;;-0.82;83.96;101210.00;5096263;28;20734;-68
2023/04/06 04:44:01;;;;;;;42.40;22.30;;;;;;;-0.76;83.00;101216.94;5095954;28;20292;-67
2023/04/06 04:46:29;;;;;;;40.53;21.23;;;;;;;-0.74;83.05;101209.84;5096279;28;20204;-68
2023/04/06 04:48:55;;;;;;;42.70;22.13;;;;;;;-0.65;83.62;101207.97;5095856;28;20193;-68
2023/04/06 04:51:22;;;;;;;38.23;20.47;;;;;;;-0.67;82.92;101215.00;5096346;28;20189;-68
2023/04/06 04:54:02;;;;;;;40.33;21.57;;;;;;;-0.62;83.23;101208.78;5096574;28;20873;-68
2023/04/06 04:56:31;;;;;;;39.23;20.27;;;;;;;-0.62;83.28;101203.50;5095422;28;20193;-68
2023/04/06 04:59:07;;;;;;;32.90;20.23;;;;;;;-0.59;82.83;101203.47;5096002;28;20220;-68
2023/04/06 05:01:37;;;;;;;40.43;21.30;;;;;;;-0.57;82.47;101206.94;5096154;28;20209;-68
2023/04/06 05:04:22;;;;;;;40.73;20.97;;;;;;;-0.57;82.59;101206.94;5095626;28;20271;-67
2023/04/06 05:06:48;;;;;;;30.00;20.23;;;;;;;-0.57;83.34;101204.31;5114159;28;20532;-67
2023/04/06 05:09:17;;;;;;;37.27;19.90;;;;;;;-0.59;83.40;101204.34;5095926;28;20184;-67
2023/04/06 05:11:44;;;;;;;33.90;20.43;;;;;;;-0.56;82.53;101212.16;5096742;28;20196;-67
2023/04/06 05:14:10;;;;;;;35.10;19.90;;;;;;;-0.59;82.49;101204.34;5113730;28;20881;-67
2023/04/06 05:16:37;;;;;;;36.20;21.60;;;;;;;-0.52;82.38;101211.22;5114820;28;20232;-67
2023/04/06 05:19:03;;;;;;;34.63;20.50;;;;;;;-0.45;82.42;101212.84;5095395;28;20747;-67
2023/04/06 05:21:38;;;;;;;33.03;20.90;;;;;;;-0.44;82.86;101217.19;5096414;28;20192;-67
2023/04/06 05:24:06;;;;;;;42.37;21.93;;;;;;;-0.45;82.98;101215.47;5095593;28;20594;-68
2023/04/06 05:26:33;;;;;;;30.00;19.60;;;;;;;-0.33;81.97;101216.16;5095280;28;20619;-68
2023/04/06 05:29:06;;;;;;;38.83;20.80;;;;;;;-0.35;82.32;101213.53;5095433;28;20181;-68
2023/04/06 05:31:35;;;;;;;36.07;20.10;;;;;;;-0.34;82.78;101214.41;5095403;28;20189;-68
2023/04/06 05:34:02;;;;;;;40.13;21.57;;;;;;;-0.31;82.73;101209.06;5095318;28;20557;-67
2023/04/06 05:36:32;;;;;;;39.80;20.40;;;;;;;-0.29;82.98;101215.19;5095571;28;20192;-68
2023/04/06 05:39:04;;;;;;;42.97;21.50;;;;;;;-0.21;82.29;101210.66;5095350;28;20181;-68
2023/04/06 05:41:43;;;;;;;38.23;19.40;;;;;;;-0.12;82.89;101202.56;5095225;28;20647;-69
2023/04/06 05:44:11;;;;;;;46.50;21.07;;;;;;;-0.03;82.03;101204.13;5095034;28;20228;-68
2023/04/06 05:46:41;;;;;;;46.73;24.97;;;;;;;0.04;82.82;101204.88;5095204;28;20445;-68
2023/04/06 05:49:12;;;;;;;61.10;28.17;;;;;;;0.06;81.43;101208.34;5095175;28;20280;-68
2023/04/06 05:51:39;;;;;;;57.50;24.37;;;;;;;0.14;81.20;101209.06;5095231;28;20189;-68
2023/04/06 05:54:06;;;;;;;48.27;21.97;;;;;;;0.25;82.22;101203.56;5095059;28;20201;-68
2023/04/06 05:56:32;;;;;;;42.03;22.73;;;;;;;0.31;82.34;101214.84;5095159;28;20205;-68
2023/04/06 05:59:00;;;;;;;34.13;21.03;;;;;;;0.39;81.74;101207.63;5095277;28;20253;-68
2023/04/06 06:01:28;;;;;;;45.40;20.70;;;;;;;0.52;81.64;101207.34;5095079;28;20558;-68
2023/04/06 06:03:55;;;;;;;40.50;21.60;;;;;;;0.63;81.56;101205.34;5094951;28;20209;-68
2023/04/06 06:06:27;;;;;;;34.80;21.43;;;;;;;0.73;80.86;101208.63;5095349;28;20182;-68
2023/04/06 06:09:32;;;;;;;43.73;22.40;;;;;;;0.89;81.14;101210.03;5105057;28;20200;-68
2023/04/06 06:12:13;;;;;;;52.87;25.40;;;;;;;0.99;80.19;101202.75;5098863;28;20185;-68
2023/04/06 06:14:40;;;;;;;52.17;25.23;;;;;;;1.10;79.95;101203.31;5098964;28;20209;-68
2023/04/06 06:17:06;;;;;;;49.30;22.97;;;;;;;1.23;79.58;101203.91;5098869;28;20285;-68
2023/04/06 06:19:33;;;;;;;48.83;21.50;;;;;;;1.37;79.77;101204.41;5098655;28;20203;-68
2023/04/06 06:22:04;;;;;;;29.70;19.50;;;;;;;1.58;80.34;101207.38;5099364;28;20272;-68
2023/04/06 06:24:34;;;;;;;32.03;19.97;;;;;;;1.80;79.32;101205.03;5098639;28;20219;-68
2023/04/06 06:27:01;;;;;;;33.47;19.70;;;;;;;1.96;78.67;101195.75;5098600;28;20295;-68
2023/04/06 06:29:30;;;;;;;38.23;21.30;;;;;;;2.18;78.02;101200.41;5098437;28;20561;-68
2023/04/06 06:31:57;;;;;;;30.07;19.63;;;;;;;2.45;74.57;101204.88;5099011;28;20196;-68
2023/04/06 06:34:24;;;;;;;32.93;20.73;;;;;;;2.63;75.01;101203.44;5116685;28;20287;-68
2023/04/06 06:36:51;;;;;;;48.23;22.17;;;;;;;2.82;72.76;101200.22;5098409;28;20189;-68
2023/04/06 06:39:18;;;;;;;31.63;19.57;;;;;;;3.11;70.45;101210.75;5098381;28;20197;-68
2023/04/06 06:41:45;;;;;;;39.87;19.17;;;;;;;3.29;69.57;101209.25;5098278;28;20216;-68
2023/04/06 06:44:11;;;;;;;34.63;19.43;;;;;;;3.45;69.39;101206.94;5098090;28;20266;-68
2023/04/06 06:46:38;;;;;;;33.00;20.83;;;;;;;3.60;69.03;101200.25;5098761;28;20201;-68
2023/04/06 06:49:05;;;;;;;49.03;21.23;;;;;;;3.77;67.79;101203.16;5116692;28;20647;-68
2023/04/06 06:51:31;;;;;;;36.63;20.40;;;;;;;3.95;66.43;101191.03;5098046;28;20288;-69
2023/04/06 06:54:00;;;;;;;30.20;19.23;;;;;;;4.15;65.43;101202.69;5097956;28;20243;-69
2023/04/06 06:56:27;;;;;;;32.50;19.00;;;;;;;4.23;64.31;101203.25;5098046;28;20287;-69
2023/04/06 06:58:54;;;;;;;30.70;19.37;;;;;;;4.42;62.72;101204.25;5098008;28;20198;-69
2023/04/06 07:01:21;;;;;;;33.70;18.43;;;;;;;4.60;62.99;101200.06;5097962;28;20555;-69
2023/04/06 07:03:47;;;;;;;25.53;18.17;;;;;;;4.72;61.92;101208.44;5098059;28;20237;-69
2023/04/06 07:06:14;;;;;;;29.70;19.17;;;;;;;4.89;62.18;101198.03;5097996;28;20732;-69
2023/04/06 07:08:41;;;;;;;28.97;19.30;;;;;;;5.06;62.15;101206.16;5097796;28;20189;-69
2023/04/06 07:11:07;;;;;;;28.33;17.97;;;;;;;5.24;61.74;101203.66;5097827;28;20540;-69
2023/04/06 07:13:33;;;;;;;29.23;19.33;;;;;;;5.38;60.82;101203.06;5115908;28;20305;-69
2023/04/06 07:16:01;;;;;;;27.70;18.37;;;;;;;5.53;59.54;101202.41;5097666;28;20189;-69
2023/04/06 07:18:28;;;;;;;40.17;19.40;;;;;;;5.66;58.70;101208.06;5097377;28;20245;-69
2023/04/06 07:20:55;;;;;;;32.23;18.57;;;;;;;5.78;57.76;101199.56;5116442;28;20186;-69
2023/04/06 07:23:21;;;;;;;32.07;17.83;;;;;;;5.91;57.29;101186.56;5116037;28;20222;-70
2023/04/06 07:25:47;;;;;;;20.83;16.93;;;;;;;6.11;55.98;101185.72;5115481;28;20295;-70
2023/04/06 07:28:14;;;;;;;24.30;15.40;;;;;;;6.25;54.63;101196.59;5115777;28;20628;-70
2023/04/06 07:30:42;;;;;;;21.47;15.87;;;;;;;6.36;52.63;101196.06;5097430;28;20273;-70
2023/04/06 07:33:10;;;;;;;21.80;15.47;;;;;;;6.46;52.24;101196.50;5097267;28;20204;-69
2023/04/06 07:35:37;;;;;;;20.10;15.60;;;;;;;6.54;50.31;101200.53;5097527;28;20552;-69
2023/04/06 07:38:05;;;;;;;21.27;15.60;;;;;;;6.63;50.19;101196.56;5097510;28;20655;-69
2023/04/06 07:40:32;;;;;;;21.57;14.17;;;;;;;6.82;51.59;101193.88;5097926;28;20201;-69
2023/04/06 07:42:59;;;;;;;17.93;15.00;;;;;;;7.01;49.71;101189.38;5097161;28;20189;-71
2023/04/06 07:45:26;;;;;;;25.30;14.40;;;;;;;7.18;49.82;101188.56;5116062;28;20785;-71
2023/04/06 07:47:53;;;;;;;19.20;14.87;;;;;;;7.36;50.16;101188.56;5097073;28;20629;-70
2023/04/06 07:50:20;;;;;;;25.53;15.10;;;;;;;7.58;50.52;101185.63;5097133;28;20199;-70
2023/04/06 07:52:46;;;;;;;19.63;14.90;;;;;;;7.74;49.92;101191.03;5097703;28;20239;-70
2023/04/06 07:55:14;;;;;;;21.07;15.27;;;;;;;7.83;47.31;101180.75;5097361;28;20205;-69
2023/04/06 07:57:40;;;;;;;16.33;14.10;;;;;;;7.96;46.88;101178.28;5115041;28;20194;-70
2023/04/06 08:00:08;;;;;;;19.47;14.53;;;;;;;8.10;46.95;101174.88;5115078;28;20183;-70
2023/04/06 08:02:38;;;;;;;22.30;15.13;;;;;;;8.25;46.37;101179.34;5115252;28;20226;-70
2023/04/06 08:05:05;;;;;;;23.57;15.37;;;;;;;8.40;45.66;101183.00;5114692;28;20217;-70
2023/04/06 08:07:32;;;;;;;20.27;15.10;;;;;;;8.66;45.53;101180.72;5115086;28;20193;-70
2023/04/06 08:09:58;;;;;;;21.37;15.73;;;;;;;8.99;45.52;101182.41;5114927;28;20192;-70
2023/04/06 08:12:24;;;;;;;22.30;15.47;;;;;;;9.12;44.55;101180.72;5114947;28;20194;-70
2023/04/06 08:14:51;;;;;;;18.70;15.27;;;;;;;9.42;43.83;101178.06;5114701;28;20212;-69
2023/04/06 08:17:17;;;;;;;19.67;15.50;;;;;;;9.66;43.01;101182.91;5114999;28;20185;-69
2023/04/06 08:19:44;;;;;;;18.80;14.70;;;;;;;9.93;43.73;101174.97;5114641;28;20555;-69
2023/04/06 08:22:11;;;;;;;20.87;16.87;;;;;;;10.07;42.50;101179.47;5114615;28;20193;-69
2023/04/06 08:24:37;;;;;;;23.13;16.73;;;;;;;10.16;41.36;101173.56;5114426;28;20223;-69
2023/04/06 08:27:04;;;;;;;23.57;17.07;;;;;;;10.41;42.81;101173.75;5114698;28;20561;-69
2023/04/06 08:29:30;;;;;;;19.17;15.50;;;;;;;10.46;42.17;101172.59;5113950;28;20193;-70
2023/04/06 08:31:56;;;;;;;22.80;17.53;;;;;;;10.43;42.00;101177.19;5114828;28;20551;-69
2023/04/06 08:34:23;;;;;;;20.60;16.00;;;;;;;10.68;42.41;101170.25;5114313;28;20215;-69
2023/04/06 08:36:50;;;;;;;24.73;16.30;;;;;;;10.65;40.90;101173.13;5114927;28;20281;-69
2023/04/06 08:39:16;;;;;;;27.83;17.37;;;;;;;10.77;40.26;101168.78;5114329;28;20191;-69
2023/04/06 08:41:43;;;;;;;29.53;15.60;;;;;;;10.64;39.99;101160.69;5114556;28;20181;-69
2023/04/06 08:44:11;;;;;;;19.27;15.27;;;;;;;10.71;40.23;101164.69;5114163;28;20209;-69
2023/04/06 08:46:37;;;;;;;19.60;15.73;;;;;;;10.72;40.09;101173.56;5114465;28;20192;-70
2023/04/06 08:49:07;;;;;;;16.70;14.87;;;;;;;10.68;39.28;101166.69;5114622;28;20189;-70
2023/04/06 08:51:34;;;;;;;17.07;15.23;;;;;;;10.60;39.61;101168.06;5114022;28;20670;-70
2023/04/06 08:54:01;;;;;;;17.47;14.73;;;;;;;10.64;39.76;101161.53;5113987;28;20212;-69
2023/04/06 08:56:28;;;;;;;16.67;15.10;;;;;;;10.74;39.44;101163.63;5114116;28;20738;-69
2023/04/06 08:58:56;;;;;;;19.03;15.67;;;;;;;10.69;37.96;101161.25;5114143;28;20597;-69
2023/04/06 09:01:27;;;;;;;20.07;15.83;;;;;;;10.91;39.57;101158.00;5113824;28;20263;-70
2023/04/06 09:03:59;;;;;;;18.70;14.90;;;;;;;10.97;37.68;101162.13;5114625;28;20200;-70
2023/04/06 09:06:30;;;;;;;21.27;17.00;;;;;;;11.06;39.04;101158.81;5114547;28;20264;-69
2023/04/06 09:08:57;;;;;;;22.07;15.10;;;;;;;11.03;37.82;101157.19;5114187;28;20230;-69
2023/04/06 09:11:24;;;;;;;17.07;15.27;;;;;;;11.17;37.57;101156.28;5113922;28;20181;-69
2023/04/06 09:13:53;;;;;;;26.93;15.77;;;;;;;11.27;37.70;101160.03;5114472;28;20221;-69
2023/04/06 09:16:21;;;;;;;23.07;15.60;;;;;;;11.38;37.15;101150.44;5113806;28;20181;-69
2023/04/06 09:18:47;;;;;;;23.80;16.23;;;;;;;11.55;37.68;101158.16;5113840;28;20205;-69
2023/04/06 09:21:18;;;;;;;25.87;17.10;;;;;;;11.61;36.94;101154.19;5114326;28;20620;-69
2023/04/06 09:23:44;;;;;;;23.80;16.60;;;;;;;11.66;35.99;101152.03;5113831;28;20300;-69
2023/04/06 09:26:13;;;;;;;16.27;14.63;;;;;;;11.76;37.51;101153.13;5113872;28;20240;-69
2023/04/06 09:28:46;;;;;;;21.93;17.43;;;;;;;11.89;35.65;101154.00;5114279;28;20174;-70
2023/04/06 09:31:22;;;;;;;32.57;16.70;;;;;;;12.02;36.90;101147.75;5113846;28;20205;-70
2023/04/06 09:33:48;;;;;;;19.60;17.27;;;;;;;12.13;35.88;101147.88;5114199;28;20208;-70
2023/04/06 09:36:17;;;;;;;18.73;15.63;;;;;;;12.15;35.07;101148.63;5114037;28;20186;-70
2023/04/06 09:39:00;;;;;;;22.13;16.43;;;;;;;12.38;36.90;101138.91;5114643;28;20198;-70
2023/04/06 09:41:28;;;;;;;21.63;16.93;;;;;;;12.62;36.04;101143.44;5116253;28;20501;-70
2023/04/06 09:44:09;;;;;;;21.73;17.10;;;;;;;12.73;35.23;101148.88;5117779;28;20204;-69
2023/04/06 09:46:41;;;;;;;30.60;18.67;;;;;;;12.83;35.14;101138.28;5117706;28;20178;-69
2023/04/06 09:49:30;;;;;;;28.43;17.70;;;;;;;12.79;34.53;101136.84;5117628;28;20223;-69
2023/04/06 09:51:59;;;;;;;25.47;15.67;;;;;;;12.74;33.60;101132.66;5117535;28;20181;-69
2023/04/06 09:54:29;;;;;;;21.50;16.93;;;;;;;12.82;34.73;101134.75;5117771;28;20229;-69
2023/04/06 09:57:21;;;;;;;19.47;16.97;;;;;;;13.03;34.83;101128.75;5117692;28;20177;-70
2023/04/06 10:00:10;;;;;;;25.27;17.23;;;;;;;13.24;34.22;101135.19;5118096;28;20226;-70
2023/04/06 10:02:56;;;;;;;32.83;18.03;;;;;;;13.31;33.42;101131.09;5117640;28;20177;-71
2023/04/06 10:05:32;;;;;;;32.43;19.27;;;;;;;13.31;32.92;101123.00;5117183;28;20201;-70
2023/04/06 10:08:05;;;;;;;26.83;19.10;;;;;;;13.53;35.62;101121.34;5117270;28;20180;-70
2023/04/06 10:10:31;;;;;;;19.77;17.67;;;;;;;13.43;33.19;101126.56;5117420;28;20174;-70
2023/04/06 10:12:58;;;;;;;24.23;17.17;;;;;;;13.56;33.51;101126.47;5117710;28;20166;-70
2023/04/06 10:15:25;;;;;;;28.63;17.77;;;;;;;13.61;32.33;101117.06;5105001;28;20197;-71
2023/04/06 10:17:52;;;;;;;26.23;17.80;;;;;;;13.64;32.52;101115.13;5116740;28;20540;-70
2023/04/06 10:20:29;;;;;;;26.40;17.80;;;;;;;13.72;32.99;101121.63;5116184;28;20189;-69
2023/04/06 10:23:01;;;;;;;23.67;18.87;;;;;;;13.28;31.69;101125.06;5111658;28;20599;-69
2023/04/06 10:25:32;;;;;;;19.57;17.43;;;;;;;13.20;34.11;101125.63;5110664;28;20253;-69
2023/04/06 10:28:00;;;;;;;25.67;18.57;;;;;;;13.13;32.84;101119.00;5114194;28;20556;-69
2023/04/06 10:30:28;;;;;;;22.87;18.90;;;;;;;13.03;32.46;101126.06;5116868;28;20574;-69
2023/04/06 10:32:54;;;;;;;22.10;17.73;;;;;;;13.11;32.66;101131.69;5099271;28;20280;-69
2023/04/06 10:35:21;;;;;;;28.43;17.60;;;;;;;13.34;33.03;101130.84;5116771;28;20618;-70
2023/04/06 10:37:59;;;;;;;27.37;18.17;;;;;;;13.54;33.47;101125.75;5116727;28;20189;-70
2023/04/06 10:40:27;;;;;;;24.27;18.93;;;;;;;13.81;32.43;101112.81;5117274;28;20191;-70
2023/04/06 10:42:55;;;;;;;22.50;18.50;;;;;;;13.92;33.23;101111.09;5116561;28;20215;-70
2023/04/06 10:45:25;;;;;;;30.33;18.03;;;;;;;13.87;32.19;101118.69;5116455;28;20236;-70
2023/04/06 10:47:53;;;;;;;25.63;19.47;;;;;;;14.13;32.78;101113.91;5116799;28;20189;-70
2023/04/06 10:50:20;;;;;;;30.07;19.43;;;;;;;13.90;32.49;101115.75;5116436;28;20215;-70
2023/04/06 10:52:57;;;;;;;26.57;20.13;;;;;;;14.02;32.76;101121.00;5116370;28;20272;-70
2023/04/06 10:55:26;;;;;;;24.20;18.33;;;;;;;14.00;33.28;101119.41;5116371;28;20205;-70
2023/04/06 10:57:52;;;;;;;25.50;19.57;;;;;;;14.09;33.27;101107.06;5116590;28;20223;-71
2023/04/06 11:00:19;;;;;;;21.53;18.67;;;;;;;14.21;33.10;101103.38;5116298;28;20547;-70
2023/04/06 11:02:47;;;;;;;27.83;19.43;;;;;;;14.28;32.99;101099.19;5116276;28;20181;-70
2023/04/06 11:05:14;;;;;;;33.67;21.57;;;;;;;14.54;33.46;101093.53;5116524;28;20251;-70
2023/04/06 11:07:41;;;;;;;31.10;23.83;;;;;;;14.46;33.40;101092.31;5116079;28;20189;-70
2023/04/06 11:10:08;;;;;;;31.93;22.53;;;;;;;14.58;34.52;101098.56;5116069;28;20189;-70
2023/04/06 11:12:37;;;;;;;35.77;23.20;;;;;;;14.67;32.60;101099.59;5116852;28;20180;-70
2023/04/06 11:15:05;;;;;;;28.93;22.73;;;;;;;14.66;32.28;101093.38;5115884;28;20220;-71
2023/04/06 11:17:35;;;;;;;34.87;20.97;;;;;;;14.73;33.13;101093.72;5115984;28;20190;-71
2023/04/06 11:20:03;;;;;;;32.67;20.47;;;;;;;14.51;33.30;101093.72;5116221;28;20189;-71